createdAt,value
2023-02-01T00:01:41.639Z,74.21
2023-02-01T00:04:19.234Z,74.24
2023-02-01T00:07:14.290Z,74.13
2023-02-01T00:09:50.749Z,74.18
2023-02-01T00:12:27.940Z,74.11
2023-02-01T00:15:16.546Z,74.18
2023-02-01T00:18:07.438Z,74.23
2023-02-01T00:21:07.527Z,74.20
2023-02-01T00:24:04.555Z,74.22
2023-02-01T00:26:46.700Z,74.15
2023-02-01T00:29:27.564Z,74.18
2023-02-01T00:32:02.552Z,74.19
2023-02-01T00:34:45.927Z,74.20
2023-02-01T00:37:23.989Z,74.15
2023-02-01T00:40:00.465Z,74.07
2023-02-01T00:43:00.635Z,74.17
2023-02-01T00:45:48.448Z,74.08
2023-02-01T00:48:18.099Z,74.08
2023-02-01T00:50:54.410Z,74.07
2023-02-01T00:54:00.894Z,74.25
2023-02-01T00:56:21.615Z,74.39
2023-02-01T00:59:19.131Z,74.44
2023-02-01T01:02:00.142Z,74.47
2023-02-01T01:04:41.687Z,74.46
2023-02-01T01:07:24.971Z,74.96
2023-02-01T01:10:05.161Z,74.79
2023-02-01T01:12:55.758Z,74.63
2023-02-01T01:15:44.754Z,74.60
2023-02-01T01:18:19.039Z,74.48
2023-02-01T01:20:53.775Z,74.60
2023-02-01T01:23:41.866Z,74.61
2023-02-01T01:26:28.087Z,74.50
2023-02-01T01:29:13.073Z,74.55
2023-02-01T01:31:55.292Z,74.44
2023-02-01T01:34:32.528Z,74.40
2023-02-01T01:37:02.076Z,74.36
2023-02-01T01:39:44.079Z,74.26
2023-02-01T01:42:28.465Z,74.27
2023-02-01T01:45:36.072Z,74.37
2023-02-01T01:48:34.050Z,74.32
2023-02-01T01:51:23.518Z,74.27
2023-02-01T01:54:43.589Z,74.11
2023-02-01T01:57:31.339Z,74.21
2023-02-01T02:00:18.651Z,74.23
2023-02-01T02:02:54.468Z,74.19
2023-02-01T02:05:33.941Z,74.14
2023-02-01T02:08:11.391Z,74.11
2023-02-01T02:11:01.163Z,73.89
2023-02-01T02:13:45.381Z,73.68
2023-02-01T02:16:58.267Z,73.64
2023-02-01T02:20:24.561Z,73.44
2023-02-01T02:23:54.616Z,73.27
2023-02-01T02:27:41.252Z,73.26
2023-02-01T02:31:00.571Z,73.30
2023-02-01T02:34:34.731Z,73.28
2023-02-01T02:38:22.640Z,73.36
2023-02-01T02:41:11.956Z,73.30
2023-02-01T02:44:18.274Z,73.07
2023-02-01T02:47:29.833Z,73.02
2023-02-01T02:50:34.634Z,72.96
2023-02-01T02:53:57.483Z,72.84
2023-02-01T02:57:08.794Z,72.84
2023-02-01T03:00:28.955Z,72.85
2023-02-01T03:03:29.277Z,72.79
2023-02-01T03:06:23.856Z,72.87
2023-02-01T03:09:19.918Z,72.76
2023-02-01T03:12:24.648Z,72.76
2023-02-01T03:15:30.316Z,72.65
2023-02-01T03:18:22.112Z,72.60
2023-02-01T03:20:58.129Z,72.50
2023-02-01T03:23:40.267Z,72.34
2023-02-01T03:26:33.236Z,72.34
2023-02-01T03:29:21.186Z,72.32
2023-02-01T03:31:58.397Z,72.25
2023-02-01T03:34:33.918Z,72.20
2023-02-01T03:37:31.145Z,72.19
2023-02-01T03:40:19.745Z,72.19
2023-02-01T03:43:11.216Z,72.06
2023-02-01T03:46:00.945Z,72.17
2023-02-01T03:48:44.103Z,72.01
2023-02-01T03:51:24.717Z,71.90
2023-02-01T03:54:03.380Z,71.78
2023-02-01T03:56:47.387Z,71.72
2023-02-01T03:59:19.111Z,71.65
2023-02-01T04:01:59.857Z,71.56
2023-02-01T04:05:07.647Z,71.44
2023-02-01T04:08:01.110Z,71.39
2023-02-01T04:10:44.372Z,71.22
2023-02-01T04:13:19.877Z,70.99
2023-02-01T04:16:10.621Z,70.82
2023-02-01T04:21:45.439Z,70.44
2023-02-01T04:24:36.884Z,70.60
2023-02-01T04:27:14.031Z,70.49
2023-02-01T04:29:47.491Z,70.51
2023-02-01T04:32:23.899Z,70.43
2023-02-01T04:34:56.520Z,70.22
2023-02-01T04:37:40.533Z,70.26
2023-02-01T04:40:16.198Z,70.50
2023-02-01T04:42:54.266Z,70.44
2023-02-01T04:45:28.006Z,70.26
2023-02-01T04:48:13.506Z,70.00
2023-02-01T04:50:48.202Z,69.61
2023-02-01T04:53:23.636Z,69.50
2023-02-01T04:55:59.850Z,69.31
2023-02-01T04:59:00.262Z,69.45
2023-02-01T05:01:39.325Z,69.47
2023-02-01T05:04:27.805Z,69.38
2023-02-01T05:07:11.873Z,69.37
2023-02-01T05:10:11.593Z,69.42
2023-02-01T05:13:43.872Z,69.54
2023-02-01T05:16:45.313Z,69.53
2023-02-01T05:19:53.195Z,69.53
2023-02-01T05:22:53.579Z,69.44
2023-02-01T05:26:06.721Z,69.23
2023-02-01T05:29:51.749Z,69.34
2023-02-01T05:33:15.995Z,69.22
2023-02-01T05:36:24.135Z,69.28
2023-02-01T05:39:50.565Z,69.07
2023-02-01T05:43:05.424Z,69.04
2023-02-01T05:46:19.614Z,68.98
2023-02-01T05:49:26.403Z,68.90
2023-02-01T05:53:53.950Z,68.80
2023-02-01T05:56:53.161Z,68.79
2023-02-01T05:59:42.977Z,68.78
2023-02-01T06:02:40.950Z,68.69
2023-02-01T06:05:24.005Z,68.75
2023-02-01T06:08:58.271Z,68.66
2023-02-01T06:11:34.043Z,68.59
2023-02-01T06:14:13.059Z,68.50
2023-02-01T06:17:18.589Z,68.41
2023-02-01T06:20:02.622Z,68.41
2023-02-01T06:22:54.995Z,68.44
2023-02-01T06:25:33.731Z,68.53
2023-02-01T06:28:11.091Z,68.42
2023-02-01T06:31:02.033Z,68.32
2023-02-01T06:39:07.377Z,68.36
2023-02-01T06:42:59.138Z,68.47
2023-02-01T06:47:05.835Z,68.42
2023-02-01T07:23:14.223Z,62.26
2023-02-01T07:35:25.282Z,62.88
2023-02-01T07:40:03.234Z,63.43
2023-02-01T07:45:20.888Z,64.11
2023-02-01T08:20:57.503Z,62.63
2023-02-01T08:25:29.981Z,63.43
2023-02-01T08:28:50.138Z,64.29
2023-02-01T08:32:20.726Z,64.85
2023-02-01T08:36:07.985Z,65.05
2023-02-01T08:40:19.685Z,65.02
2023-02-01T08:43:26.428Z,65.20
2023-02-01T08:46:25.979Z,65.68
2023-02-01T08:49:37.285Z,65.82
2023-02-01T08:52:37.921Z,65.49
2023-02-01T08:56:06.481Z,65.83
2023-02-01T08:59:37.898Z,66.14
2023-02-01T09:03:05.809Z,66.52
2023-02-01T09:06:55.506Z,66.73
2023-02-01T09:09:55.908Z,67.00
2023-02-01T09:13:15.325Z,67.41
2023-02-01T09:16:39.619Z,67.51
2023-02-01T09:19:50.085Z,67.67
2023-02-01T09:22:56.821Z,67.63
2023-02-01T09:39:22.674Z,68.33
2023-02-01T09:43:44.723Z,68.24
2023-02-01T09:47:14.736Z,67.37
2023-02-01T10:17:13.741Z,59.00
2023-02-01T10:20:23.333Z,55.67
2023-02-01T10:28:12.196Z,57.78
2023-02-01T10:36:20.511Z,59.39
2023-02-01T11:11:38.518Z,60.11
2023-02-01T12:44:14.398Z,64.39
2023-02-01T13:18:56.457Z,62.64
2023-02-01T18:34:40.596Z,64.32
2023-02-01T19:12:44.101Z,62.33
2023-02-01T20:57:54.877Z,67.14
2023-02-01T21:20:51.548Z,69.94
2023-02-01T21:24:43.295Z,70.39
2023-02-01T21:28:01.942Z,70.53
2023-02-01T21:33:18.375Z,70.65
2023-02-01T21:39:02.417Z,71.40
2023-02-01T21:43:05.132Z,71.58
2023-02-01T23:05:15.623Z,67.90
2023-02-01T23:25:57.343Z,70.38
2023-02-01T23:59:00.845Z,71.82
